Terminal Aerodrome Forecast
Issued by NWS Wichita, KS

Home | Current Version | Previous Version | Graphics & Text | Print | Product List | Glossary On
Versions: 1 2 3 4 5 6 7 8 9 10 11 12 13
000
FTUS43 KICT 192100 AAA
TAFICT
TAF AMD
KICT 192123Z 1921/2018 18013KT P6SM BKN080
     FM200000 18007KT P6SM BKN060
     FM201100 00000KT P6SM SCT050=

USA.gov is the U.S. government's official web portal to all federal, state and local government web resources and services.